Terminal Aerodrome Forecast
Issued by NWS Missoula, MT

Home | Current Version | Previous Version | Text Only | Print | Product List | Glossary On
Versions: 1 2 3 4 5 6 7 8 9 10 11 12 13 14
000
FTUS45 KMSO 030405 AAB
TAFBTM
TAF AMD
KBTM 030405Z 0304/0324 02016G22KT 4SM -SN OVC021
     FM030600 34010KT 5SM -SN BKN020 OVC030
     FM031000 32008KT P6SM BKN050 BKN100=

USA.gov is the U.S. government's official web portal to all federal, state and local government web resources and services.